Warnow Moon — A8VX3 — position and weather

sailwx.info

Track history (hours):
 
Tides and Currents Weather Stations Pressure Air Temp Water Temp Dewpoint Dewpoint Depression Visibility Wind Speed Wind Dir Waves Ship Positions

Warnow Moon

Last reported at 2016-May-25 06:34 UTC. Time now 2016-May-25 14:58 UTC.
Position N 39°46' E 119°40'.

Length 180 m; draft 6.7 m.

Type: Cargo ship. MMSI: 636016909.

Date/timePositionNaut miles runAvg speedWind from/ knotsBaromVisibWave heightAir tempDewpointWater temp
2016-May-25 06:34N 39°46' E 119°40'9 8.3
2016-May-25 05:29N 39°54' E 119°36'0 0.0
2016-May-25 04:17N 39°54' E 119°36'0 0.0
2016-May-25 03:29N 39°54' E 119°36'0 0.0
2016-May-25 02:29N 39°54' E 119°36'0 0.0
2016-May-25 01:23N 39°54' E 119°36'0 0.0
2016-May-25 00:23N 39°54' E 119°36'0 0.0
2016-May-24 23:29N 39°54' E 119°36'0 0.0
2016-May-24 22:23N 39°54' E 119°36'0 0.0
2016-May-24 21:29N 39°54' E 119°36'0 0.0
2016-May-24 20:23N 39°54' E 119°36'0 0.0
2016-May-24 19:29N 39°54' E 119°36'0 0.0
2016-May-24 17:29N 39°54' E 119°36'0 0.0
2016-May-24 16:23N 39°54' E 119°36'0 0.0
2016-May-24 11:17N 39°54' E 119°36'0 0.0
2016-May-24 10:29N 39°54' E 119°36'0 0.0
2016-May-24 09:29N 39°54' E 119°36'0 0.0
2016-May-24 08:17N 39°54' E 119°36'0 0.0
2016-May-24 07:29N 39°54' E 119°36'0 0.0
2016-May-24 06:29N 39°54' E 119°36'0 0.0
2016-May-24 05:29N 39°54' E 119°36'0 0.0
2016-May-24 02:29N 39°54' E 119°36'0 0.0
2016-May-24 01:29N 39°54' E 119°36'0 0.0
2016-May-24 00:29N 39°54' E 119°36'0 0.0
2016-May-23 19:17N 39°54' E 119°36'0 0.0
2016-May-23 18:29N 39°54' E 119°36'0 0.0
2016-May-23 17:29N 39°54' E 119°36'0 0.0
2016-May-23 16:17N 39°54' E 119°36'0 0.0
2016-May-23 15:29N 39°54' E 119°36'0 0.0
2016-May-23 14:29N 39°54' E 119°36'0 0.0
2016-May-23 13:17N 39°54' E 119°36'0 0.0
2016-May-23 12:29N 39°54' E 119°36'0 0.0
2016-May-23 11:29N 39°54' E 119°36'0 0.0
2016-May-23 10:29N 39°54' E 119°36'0 0.0
2016-May-23 09:29N 39°54' E 119°36'0 0.0
2016-May-23 08:29N 39°54' E 119°36'0 0.0
2016-May-23 07:29N 39°54' E 119°36'0 0.0
2016-May-23 06:29N 39°54' E 119°36'0 0.0
2016-May-23 05:23N 39°54' E 119°36'3 4.2
2016-May-23 04:33N 39°52' E 119°39'4 3.2
2016-May-23 03:16N 39°48' E 119°38'0 0.0
2016-May-23 02:28N 39°48' E 119°38'0 0.0
2016-May-23 01:28N 39°48' E 119°38'0 0.1
2016-May-23 00:21N 39°48' E 119°38'12312.3
2016-May-22 14:24N 38°19' E 121°28'1112.8
2016-May-22 13:32N 38°08' E 121°30'1813.3
2016-May-22 12:10N 37°51' E 121°35'812.8
2016-May-22 11:33N 37°44' E 121°31'7 0.2
2016-May-21 02:33N 37°37' E 121°28'5 3.9
2016-May-21 01:23N 37°40' E 121°31'0 0.1
2016-May-20 23:27N 37°40' E 121°32'0 0.1
2016-May-20 22:27N 37°40' E 121°32'0 0.0
2016-May-20 21:33N 37°40' E 121°32'0 0.0
2016-May-20 16:27N 37°40' E 121°32'0 0.0
2016-May-20 15:24N 37°40' E 121°32'1 1.6
2016-May-20 14:33N 37°41' E 121°31'3711.7
2016-May-20 11:24N 37°47' E 122°17'1214.0
2016-May-20 10:33N 37°46' E 122°32'1313.3
2016-May-20 09:33N 37°36' E 122°44'1414.5
2016-May-20 08:33N 37°23' E 122°51'1514.6
2016-May-20 07:34N 37°08' E 122°52'1413.7
2016-May-20 06:33N 36°54' E 122°51'1212.2
2016-May-20 05:33N 36°43' E 122°45'1212.1
2016-May-20 04:33N 36°32' E 122°40'1413.0
2016-May-20 03:28N 36°19' E 122°33'1213.2
2016-May-20 02:33N 36°10' E 122°23'1413.9
2016-May-20 01:31N 35°60' E 122°11'1713.9
2016-May-20 00:19N 35°51' E 121°53'7713.1
2016-May-19 18:26N 35°09' E 120°34'1112.3
2016-May-19 17:30N 35°04' E 120°21'1212.2
2016-May-19 16:32N 35°00' E 120°08'1312.6
2016-May-19 15:31N 34°55' E 119°53'  
Track history (hours):
 
Tides and Currents Weather Stations Pressure Air Temp Water Temp Dewpoint Dewpoint Depression Visibility Wind Speed Wind Dir Waves Ship Positions

Warnow Moon

Last reported at 2016-May-25 06:34 UTC. Time now 2016-May-25 14:58 UTC.
Position N 39°46' E 119°40'.

Length 180 m; draft 6.7 m.

Type: Cargo ship. MMSI: 636016909.

Date/timePositionNaut miles runAvg speedWind from/ knotsBaromVisibWave heightAir tempDewpointWater temp
2016-May-25 06:34N 39°46' E 119°40'9 8.3
2016-May-25 05:29N 39°54' E 119°36'0 0.0
2016-May-25 04:17N 39°54' E 119°36'0 0.0
2016-May-25 03:29N 39°54' E 119°36'0 0.0
2016-May-25 02:29N 39°54' E 119°36'0 0.0
2016-May-25 01:23N 39°54' E 119°36'0 0.0
2016-May-25 00:23N 39°54' E 119°36'0 0.0
2016-May-24 23:29N 39°54' E 119°36'0 0.0
2016-May-24 22:23N 39°54' E 119°36'0 0.0
2016-May-24 21:29N 39°54' E 119°36'0 0.0
2016-May-24 20:23N 39°54' E 119°36'0 0.0
2016-May-24 19:29N 39°54' E 119°36'0 0.0
2016-May-24 17:29N 39°54' E 119°36'0 0.0
2016-May-24 16:23N 39°54' E 119°36'0 0.0
2016-May-24 11:17N 39°54' E 119°36'0 0.0
2016-May-24 10:29N 39°54' E 119°36'0 0.0
2016-May-24 09:29N 39°54' E 119°36'0 0.0
2016-May-24 08:17N 39°54' E 119°36'0 0.0
2016-May-24 07:29N 39°54' E 119°36'0 0.0
2016-May-24 06:29N 39°54' E 119°36'0 0.0
2016-May-24 05:29N 39°54' E 119°36'0 0.0
2016-May-24 02:29N 39°54' E 119°36'0 0.0
2016-May-24 01:29N 39°54' E 119°36'0 0.0
2016-May-24 00:29N 39°54' E 119°36'0 0.0
2016-May-23 19:17N 39°54' E 119°36'0 0.0
2016-May-23 18:29N 39°54' E 119°36'0 0.0
2016-May-23 17:29N 39°54' E 119°36'0 0.0
2016-May-23 16:17N 39°54' E 119°36'0 0.0
2016-May-23 15:29N 39°54' E 119°36'0 0.0
2016-May-23 14:29N 39°54' E 119°36'0 0.0
2016-May-23 13:17N 39°54' E 119°36'0 0.0
2016-May-23 12:29N 39°54' E 119°36'0 0.0
2016-May-23 11:29N 39°54' E 119°36'0 0.0
2016-May-23 10:29N 39°54' E 119°36'0 0.0
2016-May-23 09:29N 39°54' E 119°36'0 0.0
2016-May-23 08:29N 39°54' E 119°36'0 0.0
2016-May-23 07:29N 39°54' E 119°36'0 0.0
2016-May-23 06:29N 39°54' E 119°36'0 0.0
2016-May-23 05:23N 39°54' E 119°36'3 4.2
2016-May-23 04:33N 39°52' E 119°39'4 3.2
2016-May-23 03:16N 39°48' E 119°38'0 0.0
2016-May-23 02:28N 39°48' E 119°38'0 0.0
2016-May-23 01:28N 39°48' E 119°38'0 0.1
2016-May-23 00:21N 39°48' E 119°38'12312.3
2016-May-22 14:24N 38°19' E 121°28'1112.8
2016-May-22 13:32N 38°08' E 121°30'1813.3
2016-May-22 12:10N 37°51' E 121°35'812.8
2016-May-22 11:33N 37°44' E 121°31'7 0.2
2016-May-21 02:33N 37°37' E 121°28'5 3.9
2016-May-21 01:23N 37°40' E 121°31'0 0.1
2016-May-20 23:27N 37°40' E 121°32'0 0.1
2016-May-20 22:27N 37°40' E 121°32'0 0.0
2016-May-20 21:33N 37°40' E 121°32'0 0.0
2016-May-20 16:27N 37°40' E 121°32'0 0.0
2016-May-20 15:24N 37°40' E 121°32'1 1.6
2016-May-20 14:33N 37°41' E 121°31'3711.7
2016-May-20 11:24N 37°47' E 122°17'1214.0
2016-May-20 10:33N 37°46' E 122°32'1313.3
2016-May-20 09:33N 37°36' E 122°44'1414.5
2016-May-20 08:33N 37°23' E 122°51'1514.6
2016-May-20 07:34N 37°08' E 122°52'1413.7
2016-May-20 06:33N 36°54' E 122°51'1212.2
2016-May-20 05:33N 36°43' E 122°45'1212.1
2016-May-20 04:33N 36°32' E 122°40'1413.0
2016-May-20 03:28N 36°19' E 122°33'1213.2
2016-May-20 02:33N 36°10' E 122°23'1413.9
2016-May-20 01:31N 35°60' E 122°11'1713.9
2016-May-20 00:19N 35°51' E 121°53'7713.1
2016-May-19 18:26N 35°09' E 120°34'1112.3
2016-May-19 17:30N 35°04' E 120°21'1212.2
2016-May-19 16:32N 35°00' E 120°08'1312.6
2016-May-19 15:31N 34°55' E 119°53'  

Dump ship's entire track history